sensor_id;sensor_type;location;lat;lon;timestamp;P1;durP1;ratioP1;P2;durP2;ratioP2
39982;SDS011;25670;44.782;10.356;2023-09-19T00:00:38;13.45;;;4.45;;
39982;SDS011;25670;44.782;10.356;2023-09-19T00:03:07;12.35;;;4.20;;
39982;SDS011;25670;44.782;10.356;2023-09-19T00:05:35;12.35;;;3.55;;
39982;SDS011;25670;44.782;10.356;2023-09-19T00:08:02;25.63;;;9.07;;
39982;SDS011;25670;44.782;10.356;2023-09-19T00:10:30;16.42;;;4.72;;
39982;SDS011;25670;44.782;10.356;2023-09-19T00:12:57;13.25;;;4.88;;
39982;SDS011;25670;44.782;10.356;2023-09-19T00:15:31;23.92;;;8.43;;
39982;SDS011;25670;44.782;10.356;2023-09-19T00:18:18;22.67;;;4.70;;
39982;SDS011;25670;44.782;10.356;2023-09-19T00:20:49;13.75;;;4.60;;
39982;SDS011;25670;44.782;10.356;2023-09-19T00:23:17;14.95;;;4.88;;
39982;SDS011;25670;44.782;10.356;2023-09-19T00:25:44;10.75;;;4.57;;
39982;SDS011;25670;44.782;10.356;2023-09-19T00:28:11;14.20;;;4.93;;
39982;SDS011;25670;44.782;10.356;2023-09-19T00:30:37;20.55;;;6.40;;
39982;SDS011;25670;44.782;10.356;2023-09-19T00:33:06;15.45;;;5.90;;
39982;SDS011;25670;44.782;10.356;2023-09-19T00:35:33;13.10;;;4.93;;
39982;SDS011;25670;44.782;10.356;2023-09-19T00:38:00;20.17;;;6.03;;
39982;SDS011;25670;44.782;10.356;2023-09-19T00:40:27;11.00;;;5.47;;
39982;SDS011;25670;44.782;10.356;2023-09-19T00:42:53;11.05;;;5.70;;
39982;SDS011;25670;44.782;10.356;2023-09-19T00:45:25;11.55;;;5.22;;
39982;SDS011;25670;44.782;10.356;2023-09-19T00:47:51;11.98;;;6.10;;
39982;SDS011;25670;44.782;10.356;2023-09-19T00:50:18;10.85;;;6.38;;
39982;SDS011;25670;44.782;10.356;2023-09-19T00:52:48;16.65;;;6.45;;
39982;SDS011;25670;44.782;10.356;2023-09-19T00:55:18;15.95;;;5.88;;
39982;SDS011;25670;44.782;10.356;2023-09-19T00:57:45;19.08;;;7.68;;
39982;SDS011;25670;44.782;10.356;2023-09-19T01:00:13;19.17;;;7.07;;
39982;SDS011;25670;44.782;10.356;2023-09-19T01:02:41;16.23;;;7.22;;
39982;SDS011;25670;44.782;10.356;2023-09-19T01:05:09;13.63;;;6.53;;
39982;SDS011;25670;44.782;10.356;2023-09-19T01:07:36;20.83;;;6.68;;
39982;SDS011;25670;44.782;10.356;2023-09-19T01:10:06;24.23;;;6.88;;
39982;SDS011;25670;44.782;10.356;2023-09-19T01:15:12;16.98;;;6.53;;
39982;SDS011;25670;44.782;10.356;2023-09-19T01:17:57;13.60;;;6.68;;
39982;SDS011;25670;44.782;10.356;2023-09-19T01:20:41;14.70;;;6.53;;
39982;SDS011;25670;44.782;10.356;2023-09-19T01:26:18;11.95;;;7.18;;
39982;SDS011;25670;44.782;10.356;2023-09-19T01:28:53;17.10;;;6.65;;
39982;SDS011;25670;44.782;10.356;2023-09-19T01:31:33;29.40;;;8.30;;
39982;SDS011;25670;44.782;10.356;2023-09-19T01:34:03;28.80;;;8.73;;
39982;SDS011;25670;44.782;10.356;2023-09-19T01:36:31;12.48;;;8.13;;
39982;SDS011;25670;44.782;10.356;2023-09-19T01:39:04;15.75;;;7.28;;
39982;SDS011;25670;44.782;10.356;2023-09-19T01:42:00;18.98;;;6.72;;
39982;SDS011;25670;44.782;10.356;2023-09-19T01:47:26;20.58;;;7.70;;
39982;SDS011;25670;44.782;10.356;2023-09-19T01:56:04;15.75;;;7.20;;
39982;SDS011;25670;44.782;10.356;2023-09-19T01:58:41;19.13;;;7.25;;
39982;SDS011;25670;44.782;10.356;2023-09-19T02:01:13;20.67;;;7.63;;
39982;SDS011;25670;44.782;10.356;2023-09-19T02:03:44;11.32;;;6.85;;
39982;SDS011;25670;44.782;10.356;2023-09-19T02:06:14;18.08;;;7.10;;
39982;SDS011;25670;44.782;10.356;2023-09-19T02:08:41;21.95;;;7.07;;
39982;SDS011;25670;44.782;10.356;2023-09-19T02:11:07;13.45;;;6.70;;
39982;SDS011;25670;44.782;10.356;2023-09-19T02:13:34;18.73;;;7.25;;
39982;SDS011;25670;44.782;10.356;2023-09-19T02:16:00;16.33;;;6.57;;
39982;SDS011;25670;44.782;10.356;2023-09-19T02:18:27;22.17;;;7.15;;
39982;SDS011;25670;44.782;10.356;2023-09-19T02:20:54;17.75;;;7.35;;
39982;SDS011;25670;44.782;10.356;2023-09-19T02:23:23;14.80;;;7.25;;
39982;SDS011;25670;44.782;10.356;2023-09-19T02:25:53;27.98;;;8.15;;
39982;SDS011;25670;44.782;10.356;2023-09-19T02:28:20;17.00;;;8.43;;
39982;SDS011;25670;44.782;10.356;2023-09-19T02:30:48;18.40;;;7.20;;
39982;SDS011;25670;44.782;10.356;2023-09-19T02:33:15;23.13;;;7.25;;
39982;SDS011;25670;44.782;10.356;2023-09-19T02:35:42;9.95;;;7.15;;
39982;SDS011;25670;44.782;10.356;2023-09-19T02:38:09;12.50;;;6.88;;
39982;SDS011;25670;44.782;10.356;2023-09-19T02:40:37;17.48;;;7.43;;
39982;SDS011;25670;44.782;10.356;2023-09-19T02:43:04;16.02;;;7.03;;
39982;SDS011;25670;44.782;10.356;2023-09-19T02:45:30;27.83;;;8.80;;
39982;SDS011;25670;44.782;10.356;2023-09-19T02:47:57;16.60;;;7.35;;
39982;SDS011;25670;44.782;10.356;2023-09-19T02:50:24;20.42;;;7.82;;
39982;SDS011;25670;44.782;10.356;2023-09-19T02:52:51;22.48;;;7.47;;
39982;SDS011;25670;44.782;10.356;2023-09-19T02:55:18;22.90;;;8.48;;
39982;SDS011;25670;44.782;10.356;2023-09-19T02:57:48;9.10;;;6.70;;
39982;SDS011;25670;44.782;10.356;2023-09-19T03:00:17;23.60;;;7.65;;
39982;SDS011;25670;44.782;10.356;2023-09-19T03:02:49;22.13;;;7.60;;
39982;SDS011;25670;44.782;10.356;2023-09-19T03:05:17;21.50;;;7.25;;
39982;SDS011;25670;44.782;10.356;2023-09-19T03:07:43;16.40;;;6.75;;
39982;SDS011;25670;44.782;10.356;2023-09-19T03:10:13;11.52;;;6.60;;
39982;SDS011;25670;44.782;10.356;2023-09-19T03:12:41;18.67;;;7.70;;
39982;SDS011;25670;44.782;10.356;2023-09-19T03:15:08;19.17;;;6.70;;
39982;SDS011;25670;44.782;10.356;2023-09-19T03:17:35;18.90;;;7.25;;
39982;SDS011;25670;44.782;10.356;2023-09-19T03:20:02;22.83;;;7.90;;
39982;SDS011;25670;44.782;10.356;2023-09-19T03:22:30;24.45;;;7.45;;
39982;SDS011;25670;44.782;10.356;2023-09-19T03:24:57;19.40;;;6.40;;
39982;SDS011;25670;44.782;10.356;2023-09-19T03:27:23;17.20;;;6.82;;
39982;SDS011;25670;44.782;10.356;2023-09-19T03:29:51;23.33;;;7.55;;
39982;SDS011;25670;44.782;10.356;2023-09-19T03:32:17;17.55;;;8.30;;
39982;SDS011;25670;44.782;10.356;2023-09-19T03:34:43;22.33;;;7.95;;
39982;SDS011;25670;44.782;10.356;2023-09-19T03:37:11;17.20;;;7.53;;
39982;SDS011;25670;44.782;10.356;2023-09-19T03:39:37;19.63;;;7.43;;
39982;SDS011;25670;44.782;10.356;2023-09-19T03:42:05;27.65;;;8.18;;
39982;SDS011;25670;44.782;10.356;2023-09-19T03:44:34;16.90;;;6.72;;
39982;SDS011;25670;44.782;10.356;2023-09-19T03:47:01;20.73;;;6.65;;
39982;SDS011;25670;44.782;10.356;2023-09-19T03:49:29;26.73;;;7.13;;
39982;SDS011;25670;44.782;10.356;2023-09-19T03:51:57;17.17;;;7.05;;
39982;SDS011;25670;44.782;10.356;2023-09-19T03:54:23;14.90;;;7.03;;
39982;SDS011;25670;44.782;10.356;2023-09-19T03:56:49;25.08;;;7.85;;
39982;SDS011;25670;44.782;10.356;2023-09-19T03:59:16;17.25;;;6.80;;
39982;SDS011;25670;44.782;10.356;2023-09-19T04:01:44;19.77;;;7.28;;
39982;SDS011;25670;44.782;10.356;2023-09-19T04:04:10;18.52;;;7.38;;
39982;SDS011;25670;44.782;10.356;2023-09-19T04:06:38;23.15;;;7.72;;
39982;SDS011;25670;44.782;10.356;2023-09-19T04:09:05;20.48;;;7.95;;
39982;SDS011;25670;44.782;10.356;2023-09-19T04:11:33;19.35;;;8.10;;
39982;SDS011;25670;44.782;10.356;2023-09-19T04:13:59;25.98;;;9.60;;
39982;SDS011;25670;44.782;10.356;2023-09-19T04:16:28;29.05;;;8.90;;
39982;SDS011;25670;44.782;10.356;2023-09-19T04:18:56;18.60;;;8.80;;
39982;SDS011;25670;44.782;10.356;2023-09-19T04:21:22;18.02;;;9.48;;
39982;SDS011;25670;44.782;10.356;2023-09-19T04:23:48;18.70;;;7.72;;
39982;SDS011;25670;44.782;10.356;2023-09-19T04:26:14;17.52;;;8.05;;
39982;SDS011;25670;44.782;10.356;2023-09-19T04:28:42;19.90;;;8.10;;
39982;SDS011;25670;44.782;10.356;2023-09-19T04:31:09;27.10;;;8.50;;
39982;SDS011;25670;44.782;10.356;2023-09-19T04:33:37;20.98;;;7.30;;
39982;SDS011;25670;44.782;10.356;2023-09-19T04:36:03;18.45;;;9.15;;
39982;SDS011;25670;44.782;10.356;2023-09-19T04:38:33;22.67;;;9.10;;
39982;SDS011;25670;44.782;10.356;2023-09-19T04:40:59;22.83;;;9.10;;
39982;SDS011;25670;44.782;10.356;2023-09-19T04:43:25;22.02;;;9.20;;
39982;SDS011;25670;44.782;10.356;2023-09-19T04:45:52;31.52;;;11.10;;
39982;SDS011;25670;44.782;10.356;2023-09-19T04:48:22;26.77;;;11.55;;
39982;SDS011;25670;44.782;10.356;2023-09-19T04:50:51;21.88;;;10.90;;
39982;SDS011;25670;44.782;10.356;2023-09-19T04:53:18;33.03;;;12.43;;
39982;SDS011;25670;44.782;10.356;2023-09-19T04:55:49;29.75;;;14.60;;
39982;SDS011;25670;44.782;10.356;2023-09-19T04:58:21;42.75;;;15.55;;
39982;SDS011;25670;44.782;10.356;2023-09-19T05:00:48;33.10;;;17.42;;
39982;SDS011;25670;44.782;10.356;2023-09-19T05:03:16;41.92;;;19.00;;
39982;SDS011;25670;44.782;10.356;2023-09-19T05:05:46;41.58;;;20.80;;
39982;SDS011;25670;44.782;10.356;2023-09-19T05:08:13;43.38;;;22.67;;
39982;SDS011;25670;44.782;10.356;2023-09-19T05:10:40;40.70;;;20.35;;
39982;SDS011;25670;44.782;10.356;2023-09-19T05:13:07;48.75;;;20.40;;
39982;SDS011;25670;44.782;10.356;2023-09-19T05:15:33;30.65;;;19.77;;
39982;SDS011;25670;44.782;10.356;2023-09-19T05:18:01;40.65;;;21.60;;
39982;SDS011;25670;44.782;10.356;2023-09-19T05:20:27;51.33;;;22.65;;
39982;SDS011;25670;44.782;10.356;2023-09-19T05:23:02;51.85;;;23.42;;
39982;SDS011;25670;44.782;10.356;2023-09-19T05:25:31;42.90;;;25.63;;
39982;SDS011;25670;44.782;10.356;2023-09-19T05:27:58;41.80;;;22.70;;
39982;SDS011;25670;44.782;10.356;2023-09-19T05:30:25;49.13;;;23.27;;
39982;SDS011;25670;44.782;10.356;2023-09-19T05:32:55;47.88;;;23.15;;
39982;SDS011;25670;44.782;10.356;2023-09-19T05:35:21;49.70;;;23.75;;
39982;SDS011;25670;44.782;10.356;2023-09-19T05:37:50;45.20;;;23.45;;
39982;SDS011;25670;44.782;10.356;2023-09-19T05:40:17;47.78;;;23.42;;
39982;SDS011;25670;44.782;10.356;2023-09-19T05:42:44;54.45;;;23.33;;
39982;SDS011;25670;44.782;10.356;2023-09-19T05:45:11;52.67;;;24.58;;
39982;SDS011;25670;44.782;10.356;2023-09-19T05:47:38;51.25;;;22.98;;
39982;SDS011;25670;44.782;10.356;2023-09-19T05:50:06;46.15;;;23.75;;
39982;SDS011;25670;44.782;10.356;2023-09-19T05:52:35;51.92;;;23.55;;
39982;SDS011;25670;44.782;10.356;2023-09-19T05:55:05;46.20;;;22.92;;
39982;SDS011;25670;44.782;10.356;2023-09-19T05:57:33;47.90;;;23.73;;
39982;SDS011;25670;44.782;10.356;2023-09-19T06:00:00;45.08;;;24.35;;
39982;SDS011;25670;44.782;10.356;2023-09-19T06:02:26;38.95;;;22.40;;
39982;SDS011;25670;44.782;10.356;2023-09-19T06:04:54;41.13;;;21.52;;
39982;SDS011;25670;44.782;10.356;2023-09-19T06:07:21;44.50;;;19.80;;
39982;SDS011;25670;44.782;10.356;2023-09-19T06:09:52;40.30;;;19.73;;
39982;SDS011;25670;44.782;10.356;2023-09-19T06:12:22;42.47;;;21.77;;
39982;SDS011;25670;44.782;10.356;2023-09-19T06:14:48;49.63;;;23.65;;
39982;SDS011;25670;44.782;10.356;2023-09-19T06:17:14;51.97;;;23.98;;
39982;SDS011;25670;44.782;10.356;2023-09-19T06:19:41;48.63;;;25.23;;
39982;SDS011;25670;44.782;10.356;2023-09-19T06:22:09;51.83;;;25.88;;
39982;SDS011;25670;44.782;10.356;2023-09-19T06:24:35;52.83;;;25.80;;
39982;SDS011;25670;44.782;10.356;2023-09-19T06:27:01;66.18;;;28.80;;
39982;SDS011;25670;44.782;10.356;2023-09-19T06:29:29;65.45;;;28.58;;
39982;SDS011;25670;44.782;10.356;2023-09-19T06:31:56;58.00;;;27.83;;
39982;SDS011;25670;44.782;10.356;2023-09-19T06:34:22;53.28;;;27.75;;
39982;SDS011;25670;44.782;10.356;2023-09-19T06:36:48;56.28;;;27.65;;
39982;SDS011;25670;44.782;10.356;2023-09-19T06:39:15;51.53;;;26.90;;
39982;SDS011;25670;44.782;10.356;2023-09-19T06:41:41;50.95;;;28.27;;
39982;SDS011;25670;44.782;10.356;2023-09-19T06:44:09;57.88;;;28.25;;
39982;SDS011;25670;44.782;10.356;2023-09-19T06:46:36;52.88;;;27.02;;
39982;SDS011;25670;44.782;10.356;2023-09-19T06:49:06;47.22;;;27.08;;
39982;SDS011;25670;44.782;10.356;2023-09-19T06:51:32;52.72;;;27.15;;
39982;SDS011;25670;44.782;10.356;2023-09-19T06:54:01;56.85;;;27.48;;
39982;SDS011;25670;44.782;10.356;2023-09-19T06:56:27;50.13;;;28.33;;
39982;SDS011;25670;44.782;10.356;2023-09-19T06:58:53;46.72;;;28.58;;
39982;SDS011;25670;44.782;10.356;2023-09-19T07:01:20;57.13;;;28.13;;
39982;SDS011;25670;44.782;10.356;2023-09-19T07:03:46;57.25;;;27.95;;
39982;SDS011;25670;44.782;10.356;2023-09-19T07:06:12;52.90;;;28.48;;
39982;SDS011;25670;44.782;10.356;2023-09-19T07:08:38;44.78;;;27.25;;
39982;SDS011;25670;44.782;10.356;2023-09-19T07:11:05;53.28;;;27.33;;
39982;SDS011;25670;44.782;10.356;2023-09-19T07:13:33;48.60;;;27.02;;
39982;SDS011;25670;44.782;10.356;2023-09-19T07:15:59;48.40;;;26.58;;
39982;SDS011;25670;44.782;10.356;2023-09-19T07:18:25;55.50;;;27.98;;
39982;SDS011;25670;44.782;10.356;2023-09-19T07:20:56;56.50;;;27.38;;
39982;SDS011;25670;44.782;10.356;2023-09-19T07:23:26;50.20;;;26.92;;
39982;SDS011;25670;44.782;10.356;2023-09-19T07:25:56;50.92;;;27.65;;
39982;SDS011;25670;44.782;10.356;2023-09-19T07:28:24;47.60;;;24.98;;
39982;SDS011;25670;44.782;10.356;2023-09-19T07:30:50;47.15;;;26.17;;
39982;SDS011;25670;44.782;10.356;2023-09-19T07:33:16;44.10;;;25.13;;
39982;SDS011;25670;44.782;10.356;2023-09-19T07:35:45;38.97;;;23.63;;
39982;SDS011;25670;44.782;10.356;2023-09-19T07:38:12;44.83;;;24.05;;
39982;SDS011;25670;44.782;10.356;2023-09-19T07:40:38;42.45;;;23.80;;
39982;SDS011;25670;44.782;10.356;2023-09-19T07:43:05;39.20;;;22.63;;
39982;SDS011;25670;44.782;10.356;2023-09-19T07:45:32;40.97;;;22.92;;
39982;SDS011;25670;44.782;10.356;2023-09-19T07:47:58;41.92;;;22.58;;
39982;SDS011;25670;44.782;10.356;2023-09-19T07:50:29;36.60;;;21.08;;
39982;SDS011;25670;44.782;10.356;2023-09-19T07:52:56;31.77;;;20.05;;
39982;SDS011;25670;44.782;10.356;2023-09-19T07:55:22;37.25;;;20.70;;
39982;SDS011;25670;44.782;10.356;2023-09-19T07:57:51;38.60;;;20.13;;
39982;SDS011;25670;44.782;10.356;2023-09-19T08:00:18;44.10;;;20.83;;
39982;SDS011;25670;44.782;10.356;2023-09-19T08:02:45;33.35;;;18.83;;
39982;SDS011;25670;44.782;10.356;2023-09-19T08:05:11;39.70;;;18.90;;
39982;SDS011;25670;44.782;10.356;2023-09-19T08:07:41;30.85;;;17.55;;
39982;SDS011;25670;44.782;10.356;2023-09-19T08:10:09;32.15;;;18.13;;
39982;SDS011;25670;44.782;10.356;2023-09-19T08:12:39;32.92;;;19.63;;
39982;SDS011;25670;44.782;10.356;2023-09-19T08:15:21;34.33;;;18.50;;
39982;SDS011;25670;44.782;10.356;2023-09-19T08:17:47;35.63;;;20.20;;
39982;SDS011;25670;44.782;10.356;2023-09-19T08:20:13;34.08;;;19.83;;
39982;SDS011;25670;44.782;10.356;2023-09-19T08:22:47;27.67;;;20.05;;
39982;SDS011;25670;44.782;10.356;2023-09-19T08:25:23;36.65;;;18.33;;
39982;SDS011;25670;44.782;10.356;2023-09-19T08:27:50;31.33;;;15.05;;
39982;SDS011;25670;44.782;10.356;2023-09-19T08:30:17;37.72;;;17.15;;
39982;SDS011;25670;44.782;10.356;2023-09-19T08:32:49;36.10;;;17.60;;
39982;SDS011;25670;44.782;10.356;2023-09-19T08:35:16;35.08;;;15.82;;
39982;SDS011;25670;44.782;10.356;2023-09-19T08:37:42;27.73;;;17.27;;
39982;SDS011;25670;44.782;10.356;2023-09-19T08:40:11;26.45;;;16.08;;
39982;SDS011;25670;44.782;10.356;2023-09-19T08:42:48;33.42;;;16.63;;
39982;SDS011;25670;44.782;10.356;2023-09-19T08:45:20;24.90;;;15.95;;
39982;SDS011;25670;44.782;10.356;2023-09-19T08:50:51;35.30;;;16.83;;
39982;SDS011;25670;44.782;10.356;2023-09-19T08:53:27;26.00;;;16.40;;
39982;SDS011;25670;44.782;10.356;2023-09-19T08:56:17;34.53;;;16.05;;
39982;SDS011;25670;44.782;10.356;2023-09-19T08:58:46;26.27;;;17.27;;
39982;SDS011;25670;44.782;10.356;2023-09-19T09:01:16;28.45;;;16.65;;
39982;SDS011;25670;44.782;10.356;2023-09-19T09:03:53;29.48;;;16.13;;
39982;SDS011;25670;44.782;10.356;2023-09-19T09:06:21;27.38;;;16.45;;
39982;SDS011;25670;44.782;10.356;2023-09-19T09:08:51;29.90;;;16.73;;
39982;SDS011;25670;44.782;10.356;2023-09-19T09:11:18;30.83;;;15.50;;
39982;SDS011;25670;44.782;10.356;2023-09-19T09:13:45;33.55;;;17.88;;
39982;SDS011;25670;44.782;10.356;2023-09-19T09:16:12;29.13;;;18.02;;
39982;SDS011;25670;44.782;10.356;2023-09-19T09:18:39;31.15;;;19.45;;
39982;SDS011;25670;44.782;10.356;2023-09-19T09:21:06;37.55;;;18.35;;
39982;SDS011;25670;44.782;10.356;2023-09-19T09:23:32;35.00;;;18.17;;
39982;SDS011;25670;44.782;10.356;2023-09-19T09:25:59;34.47;;;20.25;;
39982;SDS011;25670;44.782;10.356;2023-09-19T09:28:28;33.88;;;20.25;;
39982;SDS011;25670;44.782;10.356;2023-09-19T09:30:59;33.05;;;18.90;;
39982;SDS011;25670;44.782;10.356;2023-09-19T09:33:38;30.85;;;19.67;;
39982;SDS011;25670;44.782;10.356;2023-09-19T09:36:05;35.28;;;19.88;;
39982;SDS011;25670;44.782;10.356;2023-09-19T09:38:43;38.03;;;19.98;;
39982;SDS011;25670;44.782;10.356;2023-09-19T09:41:15;43.22;;;22.08;;
39982;SDS011;25670;44.782;10.356;2023-09-19T09:43:53;40.55;;;23.13;;
39982;SDS011;25670;44.782;10.356;2023-09-19T09:46:20;36.03;;;19.15;;
39982;SDS011;25670;44.782;10.356;2023-09-19T09:48:56;34.13;;;20.52;;
39982;SDS011;25670;44.782;10.356;2023-09-19T09:51:47;33.20;;;19.42;;
39982;SDS011;25670;44.782;10.356;2023-09-19T09:54:26;43.15;;;19.73;;
39982;SDS011;25670;44.782;10.356;2023-09-19T09:57:00;37.45;;;20.77;;
39982;SDS011;25670;44.782;10.356;2023-09-19T10:02:16;32.72;;;20.95;;
39982;SDS011;25670;44.782;10.356;2023-09-19T10:04:51;36.53;;;20.08;;
39982;SDS011;25670;44.782;10.356;2023-09-19T10:07:24;41.65;;;20.73;;
39982;SDS011;25670;44.782;10.356;2023-09-19T10:09:58;37.08;;;19.83;;
39982;SDS011;25670;44.782;10.356;2023-09-19T10:12:37;35.15;;;19.13;;
39982;SDS011;25670;44.782;10.356;2023-09-19T10:15:06;28.17;;;18.45;;
39982;SDS011;25670;44.782;10.356;2023-09-19T10:17:36;42.33;;;22.85;;
39982;SDS011;25670;44.782;10.356;2023-09-19T10:20:10;39.03;;;22.52;;
39982;SDS011;25670;44.782;10.356;2023-09-19T10:22:59;39.15;;;22.60;;
39982;SDS011;25670;44.782;10.356;2023-09-19T10:25:26;35.60;;;20.98;;
39982;SDS011;25670;44.782;10.356;2023-09-19T10:27:57;35.63;;;20.58;;
39982;SDS011;25670;44.782;10.356;2023-09-19T10:30:28;44.72;;;21.88;;
39982;SDS011;25670;44.782;10.356;2023-09-19T10:33:02;28.13;;;19.08;;
39982;SDS011;25670;44.782;10.356;2023-09-19T10:35:32;32.53;;;19.38;;
39982;SDS011;25670;44.782;10.356;2023-09-19T10:38:00;37.17;;;19.02;;
39982;SDS011;25670;44.782;10.356;2023-09-19T10:40:27;39.97;;;18.77;;
39982;SDS011;25670;44.782;10.356;2023-09-19T10:43:01;40.33;;;19.50;;
39982;SDS011;25670;44.782;10.356;2023-09-19T10:45:32;41.28;;;21.85;;
39982;SDS011;25670;44.782;10.356;2023-09-19T10:48:01;36.42;;;22.00;;
39982;SDS011;25670;44.782;10.356;2023-09-19T10:53:19;36.78;;;21.45;;
39982;SDS011;25670;44.782;10.356;2023-09-19T10:55:48;38.80;;;20.35;;
39982;SDS011;25670;44.782;10.356;2023-09-19T10:58:26;36.65;;;18.02;;
39982;SDS011;25670;44.782;10.356;2023-09-19T11:00:57;25.35;;;16.85;;
39982;SDS011;25670;44.782;10.356;2023-09-19T11:03:28;27.17;;;14.70;;
39982;SDS011;25670;44.782;10.356;2023-09-19T11:06:05;28.23;;;15.70;;
39982;SDS011;25670;44.782;10.356;2023-09-19T11:08:51;26.67;;;15.68;;
39982;SDS011;25670;44.782;10.356;2023-09-19T11:11:39;28.20;;;15.80;;
39982;SDS011;25670;44.782;10.356;2023-09-19T11:30:35;28.02;;;14.50;;
39982;SDS011;25670;44.782;10.356;2023-09-19T11:43:52;27.35;;;13.88;;
39982;SDS011;25670;44.782;10.356;2023-09-19T11:49:28;28.95;;;13.43;;
39982;SDS011;25670;44.782;10.356;2023-09-19T11:51:57;27.88;;;13.50;;
39982;SDS011;25670;44.782;10.356;2023-09-19T11:54:26;22.40;;;12.27;;
39982;SDS011;25670;44.782;10.356;2023-09-19T11:56:58;17.15;;;10.90;;
39982;SDS011;25670;44.782;10.356;2023-09-19T11:59:31;20.48;;;11.52;;
39982;SDS011;25670;44.782;10.356;2023-09-19T12:02:05;17.65;;;11.00;;
39982;SDS011;25670;44.782;10.356;2023-09-19T12:04:37;21.95;;;11.35;;
39982;SDS011;25670;44.782;10.356;2023-09-19T12:09:41;21.33;;;10.63;;
39982;SDS011;25670;44.782;10.356;2023-09-19T12:14:48;24.70;;;10.57;;
39982;SDS011;25670;44.782;10.356;2023-09-19T12:17:19;15.77;;;9.40;;
39982;SDS011;25670;44.782;10.356;2023-09-19T12:19:53;18.08;;;10.85;;
39982;SDS011;25670;44.782;10.356;2023-09-19T12:22:21;16.20;;;9.77;;
39982;SDS011;25670;44.782;10.356;2023-09-19T12:24:47;15.77;;;10.15;;
39982;SDS011;25670;44.782;10.356;2023-09-19T12:27:17;15.63;;;11.07;;
39982;SDS011;25670;44.782;10.356;2023-09-19T12:29:44;15.23;;;8.70;;
39982;SDS011;25670;44.782;10.356;2023-09-19T12:32:11;20.05;;;8.77;;
39982;SDS011;25670;44.782;10.356;2023-09-19T12:34:38;13.25;;;8.70;;
39982;SDS011;25670;44.782;10.356;2023-09-19T12:37:13;14.98;;;7.68;;
39982;SDS011;25670;44.782;10.356;2023-09-19T12:39:53;17.00;;;8.27;;
39982;SDS011;25670;44.782;10.356;2023-09-19T12:42:40;16.70;;;9.75;;
39982;SDS011;25670;44.782;10.356;2023-09-19T12:45:07;20.58;;;8.45;;
39982;SDS011;25670;44.782;10.356;2023-09-19T12:47:39;13.23;;;7.47;;
39982;SDS011;25670;44.782;10.356;2023-09-19T12:50:09;11.15;;;6.97;;
39982;SDS011;25670;44.782;10.356;2023-09-19T12:52:47;10.77;;;8.07;;
39982;SDS011;25670;44.782;10.356;2023-09-19T12:55:22;15.95;;;8.63;;
39982;SDS011;25670;44.782;10.356;2023-09-19T13:00:39;13.85;;;8.63;;
39982;SDS011;25670;44.782;10.356;2023-09-19T13:03:13;11.63;;;8.10;;
39982;SDS011;25670;44.782;10.356;2023-09-19T13:06:13;10.93;;;6.45;;
39982;SDS011;25670;44.782;10.356;2023-09-19T13:08:42;8.00;;;6.20;;
39982;SDS011;25670;44.782;10.356;2023-09-19T13:11:15;15.07;;;6.80;;
39982;SDS011;25670;44.782;10.356;2023-09-19T13:13:50;10.43;;;6.32;;
39982;SDS011;25670;44.782;10.356;2023-09-19T13:22:41;17.85;;;8.00;;
39982;SDS011;25670;44.782;10.356;2023-09-19T13:25:14;12.55;;;7.45;;
39982;SDS011;25670;44.782;10.356;2023-09-19T13:27:44;12.23;;;7.70;;
39982;SDS011;25670;44.782;10.356;2023-09-19T13:30:12;15.05;;;7.10;;
39982;SDS011;25670;44.782;10.356;2023-09-19T13:32:38;15.63;;;8.75;;
39982;SDS011;25670;44.782;10.356;2023-09-19T13:35:06;9.57;;;7.85;;
39982;SDS011;25670;44.782;10.356;2023-09-19T13:37:34;9.63;;;7.53;;
39982;SDS011;25670;44.782;10.356;2023-09-19T13:40:10;12.10;;;7.40;;
39982;SDS011;25670;44.782;10.356;2023-09-19T13:42:37;12.30;;;8.48;;
39982;SDS011;25670;44.782;10.356;2023-09-19T13:45:04;11.40;;;8.20;;
39982;SDS011;25670;44.782;10.356;2023-09-19T13:47:30;14.43;;;8.52;;
39982;SDS011;25670;44.782;10.356;2023-09-19T13:49:58;15.80;;;8.45;;
39982;SDS011;25670;44.782;10.356;2023-09-19T13:52:26;16.65;;;7.55;;
39982;SDS011;25670;44.782;10.356;2023-09-19T13:54:55;8.75;;;6.90;;
39982;SDS011;25670;44.782;10.356;2023-09-19T13:57:24;12.43;;;7.95;;
39982;SDS011;25670;44.782;10.356;2023-09-19T13:59:54;14.27;;;7.40;;
39982;SDS011;25670;44.782;10.356;2023-09-19T14:02:21;10.82;;;7.03;;
39982;SDS011;25670;44.782;10.356;2023-09-19T14:04:54;17.73;;;8.13;;
39982;SDS011;25670;44.782;10.356;2023-09-19T14:07:20;17.20;;;7.03;;
39982;SDS011;25670;44.782;10.356;2023-09-19T14:09:47;13.68;;;8.43;;
39982;SDS011;25670;44.782;10.356;2023-09-19T14:12:13;14.15;;;8.00;;
39982;SDS011;25670;44.782;10.356;2023-09-19T14:14:40;18.38;;;7.45;;
39982;SDS011;25670;44.782;10.356;2023-09-19T14:17:07;16.33;;;7.47;;
39982;SDS011;25670;44.782;10.356;2023-09-19T14:19:34;10.23;;;6.68;;
39982;SDS011;25670;44.782;10.356;2023-09-19T14:22:02;7.70;;;6.47;;
39982;SDS011;25670;44.782;10.356;2023-09-19T14:24:33;9.48;;;6.55;;
39982;SDS011;25670;44.782;10.356;2023-09-19T14:27:00;11.45;;;6.22;;
39982;SDS011;25670;44.782;10.356;2023-09-19T14:29:26;15.15;;;7.07;;
39982;SDS011;25670;44.782;10.356;2023-09-19T14:31:52;7.63;;;5.90;;
39982;SDS011;25670;44.782;10.356;2023-09-19T14:34:20;11.70;;;7.25;;
39982;SDS011;25670;44.782;10.356;2023-09-19T14:36:46;13.30;;;6.85;;
39982;SDS011;25670;44.782;10.356;2023-09-19T14:39:14;12.32;;;6.18;;
39982;SDS011;25670;44.782;10.356;2023-09-19T14:41:40;17.95;;;7.10;;
39982;SDS011;25670;44.782;10.356;2023-09-19T14:44:06;12.02;;;6.75;;
39982;SDS011;25670;44.782;10.356;2023-09-19T14:46:35;12.13;;;7.22;;
39982;SDS011;25670;44.782;10.356;2023-09-19T14:49:01;12.65;;;5.57;;
39982;SDS011;25670;44.782;10.356;2023-09-19T14:51:30;17.23;;;6.25;;
39982;SDS011;25670;44.782;10.356;2023-09-19T14:53:57;10.30;;;6.13;;
39982;SDS011;25670;44.782;10.356;2023-09-19T14:56:23;13.23;;;6.75;;
39982;SDS011;25670;44.782;10.356;2023-09-19T14:58:51;16.67;;;7.47;;
39982;SDS011;25670;44.782;10.356;2023-09-19T15:01:17;13.13;;;6.13;;
39982;SDS011;25670;44.782;10.356;2023-09-19T15:03:43;13.85;;;6.53;;
39982;SDS011;25670;44.782;10.356;2023-09-19T15:06:11;13.35;;;6.70;;
39982;SDS011;25670;44.782;10.356;2023-09-19T15:08:43;9.50;;;5.60;;
39982;SDS011;25670;44.782;10.356;2023-09-19T15:11:13;13.70;;;7.18;;
39982;SDS011;25670;44.782;10.356;2023-09-19T15:13:43;8.65;;;5.78;;
39982;SDS011;25670;44.782;10.356;2023-09-19T15:16:10;11.25;;;6.45;;
39982;SDS011;25670;44.782;10.356;2023-09-19T15:18:37;8.05;;;5.90;;
39982;SDS011;25670;44.782;10.356;2023-09-19T15:21:06;11.88;;;5.90;;
39982;SDS011;25670;44.782;10.356;2023-09-19T15:23:33;10.43;;;5.72;;
39982;SDS011;25670;44.782;10.356;2023-09-19T15:26:00;7.20;;;5.78;;
39982;SDS011;25670;44.782;10.356;2023-09-19T15:28:27;8.98;;;5.55;;
39982;SDS011;25670;44.782;10.356;2023-09-19T15:30:59;13.93;;;6.25;;
39982;SDS011;25670;44.782;10.356;2023-09-19T15:33:31;7.18;;;3.28;;
39982;SDS011;25670;44.782;10.356;2023-09-19T15:36:11;4.22;;;1.98;;